Time;durP1;ratioP1;P1;durP2;ratioP2;P2;SDS_P1;SDS_P2;PMS_P1;PMS_P2;Temp;Humidity;BMP_temperature;BMP_pressure;BME280_temperature;BME280_humidity;BME280_pressure;Samples;Min_cycle;Max_cycle;Signal;HPM_P1;HPM_P2
2024/02/23 00:00:10;;;;;;;2.05;0.57;;;;;;;;;;5051566;28;20081;-56
2024/02/23 00:02:37;;;;;;;0.57;0.40;;;;;;;;;;5051327;28;20103;-57
2024/02/23 00:05:04;;;;;;;0.40;0.40;;;;;;;;;;5053271;28;20096;-58
2024/02/23 00:07:31;;;;;;;0.73;0.32;;;;;;;;;;5052511;28;20084;-60
2024/02/23 00:09:59;;;;;;;0.30;0.30;;;;;;;;;;5051540;28;20083;-59
2024/02/23 00:12:26;;;;;;;0.65;0.38;;;;;;;;;;5057616;28;20048;-57
2024/02/23 00:14:52;;;;;;;1.05;0.55;;;;;;;;;;5049798;28;20049;-57
2024/02/23 00:17:19;;;;;;;0.75;0.35;;;;;;;;;;5049582;28;20069;-57
2024/02/23 00:19:47;;;;;;;0.40;0.40;;;;;;;;;;5050703;28;20076;-59
2024/02/23 00:22:14;;;;;;;0.40;0.40;;;;;;;;;;5051456;28;20041;-58
2024/02/23 00:24:41;;;;;;;0.30;0.30;;;;;;;;;;5048004;28;20182;-56
2024/02/23 00:27:09;;;;;;;0.30;0.30;;;;;;;;;;5051761;28;20105;-56
2024/02/23 00:29:36;;;;;;;0.43;0.30;;;;;;;;;;5050376;28;20420;-56
2024/02/23 00:32:03;;;;;;;0.85;0.32;;;;;;;;;;5050698;28;20072;-53
2024/02/23 00:34:31;;;;;;;0.30;0.30;;;;;;;;;;5054072;28;20084;-58
2024/02/23 00:36:58;;;;;;;0.50;0.40;;;;;;;;;;5055909;28;20040;-57
2024/02/23 00:39:25;;;;;;;0.57;0.30;;;;;;;;;;5055575;28;20053;-57
2024/02/23 00:41:51;;;;;;;0.20;0.20;;;;;;;;;;5055240;28;20084;-54
2024/02/23 00:44:20;;;;;;;0.30;0.30;;;;;;;;;;5055055;28;20049;-56
2024/02/23 00:46:46;;;;;;;0.95;0.38;;;;;;;;;;5054029;28;20072;-58
2024/02/23 00:49:13;;;;;;;0.30;0.30;;;;;;;;;;5054834;28;20088;-56
2024/02/23 00:51:40;;;;;;;0.75;0.30;;;;;;;;;;5056053;28;20111;-56
2024/02/23 00:54:11;;;;;;;0.38;0.30;;;;;;;;;;5057965;28;20099;-58
2024/02/23 00:56:37;;;;;;;;;;;;;;;;;;5059325;28;20440;-55
2024/02/23 00:59:04;;;;;;;0.52;0.30;;;;;;;;;;5055132;28;20340;-57
2024/02/23 01:01:32;;;;;;;0.38;0.38;;;;;;;;;;5054896;28;20106;-58
2024/02/23 01:03:58;;;;;;;0.30;0.30;;;;;;;;;;5054966;28;20584;-57
2024/02/23 01:06:27;;;;;;;0.47;0.30;;;;;;;;;;5054504;28;20543;-55
2024/02/23 01:08:57;;;;;;;0.30;0.30;;;;;;;;;;5055007;28;20076;-58
2024/02/23 01:11:24;;;;;;;0.60;0.50;;;;;;;;;;5055112;28;20049;-57
2024/02/23 01:13:51;;;;;;;0.75;0.40;;;;;;;;;;5054360;28;20088;-56
2024/02/23 01:16:19;;;;;;;0.35;0.30;;;;;;;;;;5056081;28;20088;-60
2024/02/23 01:18:48;;;;;;;0.30;0.30;;;;;;;;;;5049980;28;20053;-57
2024/02/23 01:21:22;;;;;;;0.52;0.30;;;;;;;;;;5052383;28;20056;-56
2024/02/23 01:23:49;;;;;;;0.57;0.40;;;;;;;;;;5056040;28;20061;-57
2024/02/23 01:26:15;;;;;;;0.90;0.40;;;;;;;;;;5050553;28;20505;-58
2024/02/23 01:28:43;;;;;;;0.77;0.30;;;;;;;;;;5055739;28;20124;-58
2024/02/23 01:31:11;;;;;;;0.80;0.30;;;;;;;;;;5053792;28;20497;-56
2024/02/23 01:33:38;;;;;;;0.50;0.40;;;;;;;;;;5054170;28;20049;-59
2024/02/23 01:36:07;;;;;;;0.45;0.38;;;;;;;;;;5048366;28;20483;-57
2024/02/23 01:38:34;;;;;;;1.00;0.30;;;;;;;;;;5054559;28;20102;-57
2024/02/23 01:41:01;;;;;;;0.75;0.30;;;;;;;;;;5055034;28;20116;-57
2024/02/23 01:43:28;;;;;;;0.30;0.30;;;;;;;;;;5053874;28;20128;-55
2024/02/23 01:45:55;;;;;;;0.52;0.30;;;;;;;;;;5053341;28;20048;-56
2024/02/23 01:48:22;;;;;;;0.55;0.40;;;;;;;;;;5054244;28;20072;-54
2024/02/23 01:50:48;;;;;;;0.95;0.40;;;;;;;;;;5064847;28;20482;-58
2024/02/23 01:53:19;;;;;;;0.30;0.30;;;;;;;;;;5074109;28;20088;-54
2024/02/23 01:55:48;;;;;;;0.50;0.30;;;;;;;;;;5074110;28;20044;-56
2024/02/23 01:58:15;;;;;;;0.30;0.30;;;;;;;;;;5067576;28;20049;-58
2024/02/23 02:00:42;;;;;;;0.30;0.30;;;;;;;;;;5054016;28;20084;-58
2024/02/23 02:03:09;;;;;;;0.30;0.30;;;;;;;;;;5053705;28;20081;-55
2024/02/23 02:05:37;;;;;;;0.30;0.30;;;;;;;;;;5054363;28;20045;-56
2024/02/23 02:08:04;;;;;;;0.30;0.30;;;;;;;;;;5053874;28;20535;-56
2024/02/23 02:10:32;;;;;;;0.20;0.20;;;;;;;;;;5053805;28;20049;-54
2024/02/23 02:13:03;;;;;;;0.30;0.30;;;;;;;;;;5053731;28;20080;-59
2024/02/23 02:15:30;;;;;;;0.20;0.20;;;;;;;;;;5054215;28;20505;-55
2024/02/23 02:17:56;;;;;;;0.22;0.22;;;;;;;;;;5053806;28;20532;-55
2024/02/23 02:20:25;;;;;;;0.20;0.20;;;;;;;;;;5054139;28;20076;-57
2024/02/23 02:22:52;;;;;;;0.30;0.30;;;;;;;;;;5053864;28;20411;-57
2024/02/23 02:25:19;;;;;;;0.20;0.20;;;;;;;;;;5053841;28;20080;-58
2024/02/23 02:27:47;;;;;;;0.20;0.20;;;;;;;;;;5053695;28;20076;-59
2024/02/23 02:30:14;;;;;;;0.20;0.20;;;;;;;;;;5050546;28;20077;-57
2024/02/23 02:32:41;;;;;;;0.28;0.22;;;;;;;;;;5033802;28;20489;-54
2024/02/23 02:35:09;;;;;;;0.20;0.20;;;;;;;;;;5033940;28;20091;-59
2024/02/23 02:37:36;;;;;;;0.65;0.30;;;;;;;;;;5033327;28;20099;-54
2024/02/23 02:40:03;;;;;;;0.20;0.20;;;;;;;;;;5032981;28;20103;-59
2024/02/23 02:42:30;;;;;;;0.35;0.30;;;;;;;;;;5033390;28;20544;-54
2024/02/23 02:44:58;;;;;;;0.20;0.20;;;;;;;;;;5048639;28;20053;-59
2024/02/23 02:47:24;;;;;;;0.57;0.30;;;;;;;;;;5052983;28;20501;-55
2024/02/23 02:49:51;;;;;;;0.47;0.30;;;;;;;;;;5053152;28;20127;-58
2024/02/23 02:52:18;;;;;;;0.30;0.30;;;;;;;;;;5053072;28;20081;-59
2024/02/23 02:54:45;;;;;;;0.88;0.30;;;;;;;;;;5052558;28;20095;-56
2024/02/23 02:57:12;;;;;;;0.68;0.40;;;;;;;;;;5052076;28;20076;-59
2024/02/23 02:59:38;;;;;;;0.43;0.30;;;;;;;;;;5052240;28;20447;-57
2024/02/23 03:02:06;;;;;;;0.63;0.30;;;;;;;;;;5052497;28;20065;-58
2024/02/23 03:04:33;;;;;;;2.47;0.40;;;;;;;;;;5047488;28;20099;-58
2024/02/23 03:07:00;;;;;;;0.40;0.40;;;;;;;;;;5046336;28;20049;-59
2024/02/23 03:09:26;;;;;;;0.28;0.28;;;;;;;;;;5053473;28;20048;-57
2024/02/23 03:11:53;;;;;;;1.25;0.40;;;;;;;;;;5052062;28;20129;-58
2024/02/23 03:14:20;;;;;;;0.45;0.30;;;;;;;;;;5048970;28;20041;-55
2024/02/23 03:16:49;;;;;;;0.90;0.28;;;;;;;;;;5050738;28;20556;-58
2024/02/23 03:19:19;;;;;;;0.50;0.30;;;;;;;;;;5056813;28;20045;-57
2024/02/23 03:21:46;;;;;;;0.40;0.30;;;;;;;;;;5052328;28;20099;-57
2024/02/23 03:24:13;;;;;;;0.40;0.40;;;;;;;;;;5052895;28;20127;-56
2024/02/23 03:26:39;;;;;;;0.30;0.30;;;;;;;;;;5053308;28;20124;-58
2024/02/23 03:29:06;;;;;;;0.50;0.30;;;;;;;;;;5052251;28;20132;-56
2024/02/23 03:31:33;;;;;;;0.30;0.30;;;;;;;;;;5051838;28;20127;-58
2024/02/23 03:34:00;;;;;;;0.85;0.30;;;;;;;;;;5053065;28;20052;-56
2024/02/23 03:36:28;;;;;;;0.30;0.30;;;;;;;;;;5050390;28;20152;-55
2024/02/23 03:38:54;;;;;;;0.30;0.30;;;;;;;;;;5051421;28;20080;-57
2024/02/23 03:41:21;;;;;;;1.35;0.40;;;;;;;;;;5051200;28;20052;-56
2024/02/23 03:43:48;;;;;;;0.32;0.32;;;;;;;;;;5054211;28;20135;-58
2024/02/23 03:46:14;;;;;;;0.52;0.40;;;;;;;;;;5045061;28;20049;-57
2024/02/23 03:48:41;;;;;;;0.57;0.30;;;;;;;;;;5057349;28;20044;-56
2024/02/23 03:51:09;;;;;;;0.32;0.32;;;;;;;;;;5050567;28;20045;-56
2024/02/23 03:53:37;;;;;;;0.82;0.40;;;;;;;;;;5051395;28;20475;-57
2024/02/23 03:56:05;;;;;;;0.40;0.30;;;;;;;;;;5049922;28;20481;-56
2024/02/23 03:58:31;;;;;;;0.30;0.30;;;;;;;;;;5044715;28;20076;-57
2024/02/23 04:00:58;;;;;;;0.63;0.30;;;;;;;;;;5050847;28;20081;-57
2024/02/23 04:03:25;;;;;;;0.77;0.40;;;;;;;;;;5050923;28;20425;-58
2024/02/23 04:05:51;;;;;;;0.30;0.30;;;;;;;;;;5053061;28;20484;-58
2024/02/23 04:08:18;;;;;;;0.40;0.40;;;;;;;;;;5050684;28;20124;-58
2024/02/23 04:10:46;;;;;;;0.40;0.40;;;;;;;;;;5049869;28;20049;-56
2024/02/23 04:13:14;;;;;;;1.42;0.50;;;;;;;;;;5044564;28;20095;-58
2024/02/23 04:15:41;;;;;;;0.43;0.43;;;;;;;;;;5049014;28;20427;-58
2024/02/23 04:18:07;;;;;;;0.55;0.45;;;;;;;;;;5052267;28;20080;-54
2024/02/23 04:20:34;;;;;;;0.40;0.40;;;;;;;;;;5051155;28;20080;-55
2024/02/23 04:23:01;;;;;;;0.40;0.40;;;;;;;;;;5047619;28;20194;-54
2024/02/23 04:25:28;;;;;;;0.88;0.40;;;;;;;;;;5051785;28;20045;-56
2024/02/23 04:27:56;;;;;;;0.40;0.40;;;;;;;;;;5051204;28;20135;-55
2024/02/23 04:30:22;;;;;;;0.65;0.40;;;;;;;;;;5054147;28;20091;-54
2024/02/23 04:32:49;;;;;;;0.40;0.40;;;;;;;;;;5051839;28;20558;-57
2024/02/23 04:35:17;;;;;;;0.30;0.30;;;;;;;;;;5048834;28;20151;-55
2024/02/23 04:37:45;;;;;;;0.65;0.40;;;;;;;;;;5051532;28;20148;-57
2024/02/23 04:40:12;;;;;;;0.55;0.40;;;;;;;;;;5052853;28;20045;-55
2024/02/23 04:42:39;;;;;;;0.80;0.60;;;;;;;;;;5050759;28;20049;-55
2024/02/23 04:45:09;;;;;;;1.85;0.40;;;;;;;;;;5050074;28;20567;-56
2024/02/23 04:47:36;;;;;;;1.38;0.50;;;;;;;;;;5050940;28;20087;-57
2024/02/23 04:50:03;;;;;;;0.40;0.35;;;;;;;;;;5050695;28;20133;-57
2024/02/23 04:52:30;;;;;;;0.40;0.40;;;;;;;;;;5052757;28;20052;-54
2024/02/23 04:54:56;;;;;;;0.90;0.30;;;;;;;;;;5051993;28;20060;-56
2024/02/23 04:57:23;;;;;;;0.65;0.40;;;;;;;;;;5050673;28;20072;-56
2024/02/23 04:59:50;;;;;;;0.90;0.40;;;;;;;;;;5050043;28;20512;-57
2024/02/23 05:02:18;;;;;;;0.68;0.45;;;;;;;;;;5050456;28;20476;-53
2024/02/23 05:04:45;;;;;;;0.60;0.40;;;;;;;;;;5056023;28;20036;-56
2024/02/23 05:07:13;;;;;;;0.70;0.30;;;;;;;;;;5047935;28;20051;-56
2024/02/23 05:09:40;;;;;;;0.30;0.30;;;;;;;;;;5050303;28;20791;-57
2024/02/23 05:12:08;;;;;;;0.57;0.40;;;;;;;;;;5046917;28;20045;-58
2024/02/23 05:14:35;;;;;;;0.55;0.43;;;;;;;;;;5046637;28;20539;-56
2024/02/23 05:17:01;;;;;;;0.80;0.45;;;;;;;;;;5050801;28;20072;-56
2024/02/23 05:19:29;;;;;;;1.05;0.40;;;;;;;;;;5050053;28;20045;-55
2024/02/23 05:21:56;;;;;;;1.17;0.60;;;;;;;;;;5048083;28;20080;-56
2024/02/23 05:24:23;;;;;;;0.68;0.50;;;;;;;;;;5054211;28;20133;-56
2024/02/23 05:26:49;;;;;;;0.30;0.30;;;;;;;;;;5046695;28;20129;-56
2024/02/23 05:29:17;;;;;;;0.93;0.45;;;;;;;;;;5051940;28;20092;-57
2024/02/23 05:31:49;;;;;;;0.75;0.43;;;;;;;;;;5053792;28;20048;-54
2024/02/23 05:34:16;;;;;;;0.95;0.50;;;;;;;;;;5051644;28;20126;-56
2024/02/23 05:36:45;;;;;;;1.38;0.60;;;;;;;;;;5054958;28;20076;-54
2024/02/23 05:39:12;;;;;;;1.00;0.50;;;;;;;;;;5057502;28;20077;-57
2024/02/23 05:41:39;;;;;;;0.70;0.57;;;;;;;;;;5048346;28;20048;-57
2024/02/23 05:44:06;;;;;;;2.58;0.73;;;;;;;;;;5047008;28;20137;-57
2024/02/23 05:46:33;;;;;;;1.02;0.60;;;;;;;;;;5053497;28;20080;-55
2024/02/23 05:49:00;;;;;;;0.90;0.50;;;;;;;;;;5053443;28;20045;-55
2024/02/23 05:51:29;;;;;;;0.88;0.60;;;;;;;;;;5053539;28;20148;-57
2024/02/23 05:53:57;;;;;;;0.90;0.52;;;;;;;;;;5046415;28;20042;-57
2024/02/23 05:56:24;;;;;;;0.70;0.45;;;;;;;;;;5053684;28;20076;-56
2024/02/23 05:58:51;;;;;;;0.82;0.63;;;;;;;;;;5053576;28;20052;-55
2024/02/23 06:01:18;;;;;;;1.00;0.60;;;;;;;;;;5048748;28;20079;-57
2024/02/23 06:03:45;;;;;;;1.27;0.70;;;;;;;;;;5052885;28;20041;-58
2024/02/23 06:06:12;;;;;;;1.02;0.70;;;;;;;;;;5053073;28;20047;-57
2024/02/23 06:08:39;;;;;;;2.15;0.93;;;;;;;;;;5057961;28;20504;-58
2024/02/23 06:11:07;;;;;;;1.45;0.70;;;;;;;;;;5054440;28;20578;-57
2024/02/23 06:13:34;;;;;;;1.35;0.60;;;;;;;;;;5056552;28;20088;-56
2024/02/23 06:16:01;;;;;;;1.23;0.70;;;;;;;;;;5052989;28;20420;-55
2024/02/23 06:18:27;;;;;;;1.83;0.77;;;;;;;;;;5057696;28;20085;-56
2024/02/23 06:20:54;;;;;;;1.27;0.70;;;;;;;;;;5052732;28;20081;-57
2024/02/23 06:23:21;;;;;;;1.60;1.08;;;;;;;;;;5052363;28;20079;-57
2024/02/23 06:25:49;;;;;;;0.82;0.52;;;;;;;;;;5052595;28;20053;-57
2024/02/23 06:28:17;;;;;;;2.33;0.80;;;;;;;;;;5054446;28;20080;-57
2024/02/23 06:30:43;;;;;;;1.00;0.50;;;;;;;;;;5051369;28;20095;-55
2024/02/23 06:33:10;;;;;;;1.65;0.80;;;;;;;;;;5051968;28;20591;-57
2024/02/23 06:35:37;;;;;;;1.77;0.63;;;;;;;;;;5052503;28;20682;-56
2024/02/23 06:38:05;;;;;;;0.68;0.52;;;;;;;;;;5052917;28;20084;-55
2024/02/23 06:40:32;;;;;;;2.45;0.70;;;;;;;;;;5052739;28;20052;-56
2024/02/23 06:42:59;;;;;;;1.80;0.73;;;;;;;;;;5058662;28;20065;-57
2024/02/23 06:45:27;;;;;;;0.80;0.60;;;;;;;;;;5051713;28;20132;-57
2024/02/23 06:47:54;;;;;;;1.85;0.60;;;;;;;;;;5052611;28;20086;-57
2024/02/23 06:50:21;;;;;;;1.23;0.85;;;;;;;;;;5052658;28;20083;-58
2024/02/23 06:52:49;;;;;;;0.93;0.60;;;;;;;;;;5057292;28;20052;-57
2024/02/23 06:55:16;;;;;;;2.03;0.80;;;;;;;;;;5053011;28;20179;-56
2024/02/23 06:57:43;;;;;;;3.28;0.70;;;;;;;;;;5048313;28;20128;-54
2024/02/23 07:00:10;;;;;;;1.35;0.60;;;;;;;;;;5049373;28;20081;-57
2024/02/23 07:02:38;;;;;;;1.55;0.60;;;;;;;;;;5052253;28;20091;-56
2024/02/23 07:05:06;;;;;;;1.85;0.93;;;;;;;;;;5056857;28;20162;-56
2024/02/23 07:07:33;;;;;;;0.93;0.45;;;;;;;;;;5044611;28;20471;-56
2024/02/23 07:09:59;;;;;;;1.63;0.80;;;;;;;;;;5055622;28;20497;-57
2024/02/23 07:12:27;;;;;;;2.05;0.77;;;;;;;;;;5053213;28;20084;-58
2024/02/23 07:14:54;;;;;;;1.30;0.70;;;;;;;;;;5053272;28;20045;-58
2024/02/23 07:17:21;;;;;;;2.25;0.90;;;;;;;;;;5051791;28;20463;-52
2024/02/23 07:19:50;;;;;;;1.75;0.90;;;;;;;;;;5052126;28;20049;-58
2024/02/23 07:22:18;;;;;;;4.22;1.00;;;;;;;;;;5052088;28;20063;-55
2024/02/23 07:24:45;;;;;;;2.05;1.35;;;;;;;;;;5048768;28;20423;-56
2024/02/23 07:27:12;;;;;;;1.63;0.90;;;;;;;;;;5051500;28;20091;-55
2024/02/23 07:29:39;;;;;;;1.70;1.00;;;;;;;;;;5051943;28;20085;-54
2024/02/23 07:32:06;;;;;;;3.35;1.65;;;;;;;;;;5051391;28;20459;-57
2024/02/23 07:34:33;;;;;;;1.25;0.80;;;;;;;;;;5052012;28;20049;-57
2024/02/23 07:37:01;;;;;;;2.35;0.90;;;;;;;;;;5052564;28;20080;-57
2024/02/23 07:39:29;;;;;;;1.50;0.90;;;;;;;;;;5055444;28;20048;-57
2024/02/23 07:41:56;;;;;;;3.55;1.20;;;;;;;;;;5052022;28;20480;-55
2024/02/23 07:44:24;;;;;;;2.10;0.80;;;;;;;;;;5051174;28;20620;-55
2024/02/23 07:46:52;;;;;;;2.95;0.75;;;;;;;;;;5051922;28;20040;-56
2024/02/23 07:49:19;;;;;;;2.47;0.88;;;;;;;;;;5045092;28;20129;-57
2024/02/23 07:51:46;;;;;;;2.63;1.08;;;;;;;;;;5049274;28;20120;-56
2024/02/23 07:54:14;;;;;;;2.63;0.90;;;;;;;;;;5051337;28;20091;-56
2024/02/23 07:56:40;;;;;;;2.20;0.70;;;;;;;;;;5049101;28;20476;-56
2024/02/23 07:59:07;;;;;;;1.48;0.80;;;;;;;;;;5051886;28;20107;-57
2024/02/23 08:01:34;;;;;;;2.65;1.15;;;;;;;;;;5051597;28;20124;-55
2024/02/23 08:04:02;;;;;;;2.72;1.05;;;;;;;;;;5051102;28;20463;-56
2024/02/23 08:06:29;;;;;;;2.10;0.90;;;;;;;;;;5054756;28;20040;-57
2024/02/23 08:08:56;;;;;;;2.80;0.93;;;;;;;;;;5054615;28;22238;-54
2024/02/23 08:11:24;;;;;;;1.60;0.70;;;;;;;;;;5053252;28;20099;-55
2024/02/23 08:13:51;;;;;;;2.63;0.80;;;;;;;;;;5051068;28;20047;-54
2024/02/23 08:16:18;;;;;;;2.45;0.98;;;;;;;;;;5057765;28;20078;-56
2024/02/23 08:18:44;;;;;;;4.20;1.10;;;;;;;;;;5054903;28;20535;-55
2024/02/23 08:21:11;;;;;;;1.92;0.70;;;;;;;;;;5056660;28;20080;-59
2024/02/23 08:23:38;;;;;;;3.55;1.10;;;;;;;;;;5051649;28;20472;-56
2024/02/23 08:26:05;;;;;;;2.35;1.17;;;;;;;;;;5058831;28;20131;-69
2024/02/23 08:28:33;;;;;;;2.72;0.88;;;;;;;;;;5047607;28;20457;-60
2024/02/23 08:31:00;;;;;;;2.40;1.10;;;;;;;;;;5054131;28;20155;-62
2024/02/23 08:33:26;;;;;;;4.03;1.40;;;;;;;;;;5053714;28;20168;-55
2024/02/23 08:35:53;;;;;;;5.28;1.45;;;;;;;;;;5063110;28;20141;-64
2024/02/23 08:38:20;;;;;;;3.60;1.00;;;;;;;;;;5058283;28;20068;-57
2024/02/23 08:40:46;;;;;;;4.47;2.03;;;;;;;;;;5047637;28;20136;-55
2024/02/23 08:43:14;;;;;;;10.60;6.03;;;;;;;;;;5039319;28;20128;-56
2024/02/23 08:45:42;;;;;;;7.63;3.60;;;;;;;;;;5054410;28;20107;-55
2024/02/23 08:48:09;;;;;;;4.65;2.35;;;;;;;;;;5040495;28;20476;-57
2024/02/23 08:50:37;;;;;;;2.42;0.80;;;;;;;;;;5041272;28;20406;-55
2024/02/23 08:53:05;;;;;;;1.85;0.85;;;;;;;;;;5050580;28;20408;-57
2024/02/23 08:55:32;;;;;;;1.73;0.90;;;;;;;;;;5056634;28;20485;-57
2024/02/23 08:57:59;;;;;;;1.48;0.70;;;;;;;;;;5056010;28;20477;-57
2024/02/23 09:00:26;;;;;;;2.95;0.85;;;;;;;;;;5053299;28;20476;-54
2024/02/23 09:02:54;;;;;;;1.88;0.95;;;;;;;;;;5051644;28;20084;-56
2024/02/23 09:05:21;;;;;;;1.98;0.65;;;;;;;;;;5060337;28;20088;-55
2024/02/23 09:07:48;;;;;;;2.25;0.70;;;;;;;;;;5057402;28;20072;-55
2024/02/23 09:10:15;;;;;;;1.48;0.70;;;;;;;;;;5053742;28;20096;-54
2024/02/23 09:12:42;;;;;;;1.50;0.65;;;;;;;;;;5053314;28;20037;-54
2024/02/23 09:15:09;;;;;;;2.75;0.90;;;;;;;;;;5064604;28;20460;-56
2024/02/23 09:17:36;;;;;;;4.55;0.98;;;;;;;;;;5058553;28;20161;-52
2024/02/23 09:20:05;;;;;;;1.77;1.08;;;;;;;;;;5060371;28;20072;-56
2024/02/23 09:22:31;;;;;;;1.25;0.60;;;;;;;;;;5053552;28;20084;-58
2024/02/23 09:24:58;;;;;;;0.85;0.55;;;;;;;;;;5055131;28;20477;-56
2024/02/23 09:27:25;;;;;;;1.23;0.73;;;;;;;;;;5059515;28;20049;-56
2024/02/23 09:29:51;;;;;;;1.50;0.55;;;;;;;;;;5054509;28;20132;-55
2024/02/23 09:32:18;;;;;;;1.92;1.05;;;;;;;;;;5057920;28;20049;-56
2024/02/23 09:34:45;;;;;;;2.58;0.60;;;;;;;;;;5058216;28;20041;-56
2024/02/23 09:37:13;;;;;;;3.75;0.90;;;;;;;;;;5051841;28;20095;-53
2024/02/23 09:39:39;;;;;;;1.73;0.60;;;;;;;;;;5043885;28;20073;-53
2024/02/23 09:42:10;;;;;;;1.73;0.68;;;;;;;;;;5053599;28;20128;-55
2024/02/23 09:44:38;;;;;;;0.70;0.50;;;;;;;;;;5044198;28;20049;-57
2024/02/23 09:47:10;;;;;;;1.52;0.65;;;;;;;;;;5034033;28;20076;-54
2024/02/23 09:49:39;;;;;;;2.25;0.70;;;;;;;;;;5048159;28;20050;-53
2024/02/23 09:52:09;;;;;;;0.80;0.80;;;;;;;;;;5033515;28;20041;-58
2024/02/23 09:54:37;;;;;;;2.03;0.60;;;;;;;;;;5046982;28;20051;-57
2024/02/23 09:57:08;;;;;;;3.47;1.00;;;;;;;;;;5051406;28;20455;-57
2024/02/23 09:59:34;;;;;;;;;;;;;;;;;;5059110;28;20076;-57
2024/02/23 10:02:03;;;;;;;1.40;0.70;;;;;;;;;;5054899;28;19959;-56
2024/02/23 10:04:31;;;;;;;3.50;0.98;;;;;;;;;;5055361;28;20126;-56
2024/02/23 10:06:57;;;;;;;2.92;0.82;;;;;;;;;;5050419;28;20049;-56
2024/02/23 10:09:24;;;;;;;2.55;1.00;;;;;;;;;;5056223;28;20076;-57
2024/02/23 10:11:54;;;;;;;2.50;1.13;;;;;;;;;;5050402;28;20045;-56
2024/02/23 10:14:21;;;;;;;4.05;1.05;;;;;;;;;;5054625;28;20440;-61
2024/02/23 10:16:53;;;;;;;1.60;1.00;;;;;;;;;;5056216;28;20076;-57
2024/02/23 10:19:20;;;;;;;1.70;0.80;;;;;;;;;;5052713;28;20044;-57
2024/02/23 10:21:47;;;;;;;3.92;1.13;;;;;;;;;;5056806;28;20132;-55
2024/02/23 10:24:13;;;;;;;2.00;0.85;;;;;;;;;;5046815;28;20049;-55
2024/02/23 10:26:40;;;;;;;4.40;0.90;;;;;;;;;;5054135;28;20124;-57
2024/02/23 10:29:09;;;;;;;2.67;0.90;;;;;;;;;;5059575;28;20079;-57
2024/02/23 10:31:37;;;;;;;3.38;0.88;;;;;;;;;;5051772;28;20668;-57
2024/02/23 10:34:11;;;;;;;2.40;1.00;;;;;;;;;;5051512;28;20512;-57
2024/02/23 10:36:42;;;;;;;1.75;0.77;;;;;;;;;;5054802;28;20048;-54
2024/02/23 10:39:10;;;;;;;3.13;1.00;;;;;;;;;;5059932;28;20048;-57
2024/02/23 10:41:37;;;;;;;2.90;0.90;;;;;;;;;;5053878;28;22068;-55
2024/02/23 10:44:05;;;;;;;3.13;0.90;;;;;;;;;;5052666;28;20049;-57
2024/02/23 10:46:33;;;;;;;2.25;0.80;;;;;;;;;;5048026;28;20137;-57
2024/02/23 10:49:00;;;;;;;2.42;0.90;;;;;;;;;;5049592;28;20501;-57
2024/02/23 10:51:27;;;;;;;1.83;0.60;;;;;;;;;;5050156;28;20756;-53
2024/02/23 10:53:54;;;;;;;3.13;1.10;;;;;;;;;;5043302;28;20524;-56
2024/02/23 10:56:22;;;;;;;3.92;1.10;;;;;;;;;;5036420;28;20045;-57
2024/02/23 10:58:48;;;;;;;2.22;0.80;;;;;;;;;;5033546;28;20424;-57
2024/02/23 11:01:16;;;;;;;3.00;0.70;;;;;;;;;;5034243;28;20124;-57
2024/02/23 11:03:49;;;;;;;2.92;0.98;;;;;;;;;;5039590;28;20124;-57
2024/02/23 11:06:20;;;;;;;1.88;0.70;;;;;;;;;;5034656;28;20124;-56
2024/02/23 11:08:47;;;;;;;2.65;0.90;;;;;;;;;;5039419;28;20081;-58
2024/02/23 11:11:17;;;;;;;2.22;0.75;;;;;;;;;;5034092;28;20073;-57
2024/02/23 11:13:45;;;;;;;2.63;0.70;;;;;;;;;;5039600;28;20083;-58
2024/02/23 11:16:21;;;;;;;3.22;1.00;;;;;;;;;;5034045;28;20072;-58
2024/02/23 11:18:49;;;;;;;2.15;0.90;;;;;;;;;;5038836;28;20083;-58
2024/02/23 11:21:16;;;;;;;0.77;0.60;;;;;;;;;;5040954;28;20124;-54
2024/02/23 11:23:43;;;;;;;1.80;1.08;;;;;;;;;;5049127;28;20179;-57
2024/02/23 11:26:11;;;;;;;3.58;0.88;;;;;;;;;;5049335;28;20480;-58
2024/02/23 11:28:47;;;;;;;2.85;1.27;;;;;;;;;;5040516;28;20140;-56
2024/02/23 11:31:15;;;;;;;2.80;0.95;;;;;;;;;;5034811;28;20465;-58
2024/02/23 11:33:50;;;;;;;2.35;1.00;;;;;;;;;;5039992;28;20124;-57
2024/02/23 11:36:23;;;;;;;3.47;0.85;;;;;;;;;;5034859;28;20077;-57
2024/02/23 11:38:53;;;;;;;2.72;0.80;;;;;;;;;;5039058;28;20137;-58
2024/02/23 11:41:22;;;;;;;2.25;1.05;;;;;;;;;;5034969;28;20045;-56
2024/02/23 11:43:48;;;;;;;2.80;1.20;;;;;;;;;;5051900;28;20091;-58
2024/02/23 11:46:16;;;;;;;1.63;0.80;;;;;;;;;;5050542;28;20475;-58
2024/02/23 11:48:43;;;;;;;3.03;0.95;;;;;;;;;;5049207;28;20146;-58
2024/02/23 11:51:11;;;;;;;2.40;0.90;;;;;;;;;;5050405;28;20041;-57
2024/02/23 11:53:38;;;;;;;3.20;0.82;;;;;;;;;;5049328;28;20071;-57
2024/02/23 11:56:06;;;;;;;1.92;0.75;;;;;;;;;;5048886;28;20058;-55
2024/02/23 11:58:33;;;;;;;2.17;1.27;;;;;;;;;;5050417;28;20476;-56
2024/02/23 12:01:02;;;;;;;2.50;0.93;;;;;;;;;;5048729;28;20080;-57
2024/02/23 12:03:29;;;;;;;3.85;1.10;;;;;;;;;;5050051;28;20349;-52
2024/02/23 12:05:57;;;;;;;0.73;0.60;;;;;;;;;;5057010;28;20072;-59
2024/02/23 12:08:27;;;;;;;1.38;0.73;;;;;;;;;;5053320;28;20485;-56
2024/02/23 12:10:55;;;;;;;2.15;0.95;;;;;;;;;;5056594;28;20074;-57
2024/02/23 12:13:22;;;;;;;2.00;0.63;;;;;;;;;;5050524;28;20560;-58
2024/02/23 12:15:49;;;;;;;1.83;0.90;;;;;;;;;;5053245;28;20073;-57
2024/02/23 12:18:15;;;;;;;3.00;1.58;;;;;;;;;;5053369;28;20102;-54
2024/02/23 12:20:42;;;;;;;3.83;1.23;;;;;;;;;;5049097;28;20099;-58
2024/02/23 12:23:10;;;;;;;2.63;1.20;;;;;;;;;;5048483;28;20065;-58
2024/02/23 12:25:38;;;;;;;0.98;0.60;;;;;;;;;;5050941;28;20107;-57
2024/02/23 12:28:05;;;;;;;1.38;1.00;;;;;;;;;;5049336;28;20129;-58
2024/02/23 12:30:32;;;;;;;2.35;0.80;;;;;;;;;;5056794;28;20461;-58
2024/02/23 12:33:04;;;;;;;2.15;0.80;;;;;;;;;;5053113;28;20060;-57
2024/02/23 12:35:31;;;;;;;2.00;0.80;;;;;;;;;;5053249;28;20099;-58
2024/02/23 12:37:58;;;;;;;3.58;0.98;;;;;;;;;;5054952;28;20469;-57
2024/02/23 12:40:24;;;;;;;2.38;1.00;;;;;;;;;;5054289;28;20132;-54
2024/02/23 12:42:53;;;;;;;3.67;1.48;;;;;;;;;;5047661;28;20140;-58
2024/02/23 12:45:19;;;;;;;2.58;1.23;;;;;;;;;;5053638;28;20072;-57
2024/02/23 12:47:46;;;;;;;2.58;1.08;;;;;;;;;;5055959;28;20076;-57
2024/02/23 12:50:13;;;;;;;2.35;1.00;;;;;;;;;;5056001;28;20037;-58
2024/02/23 12:52:40;;;;;;;2.45;1.10;;;;;;;;;;5056142;28;20084;-58
2024/02/23 12:55:08;;;;;;;2.83;1.00;;;;;;;;;;5055064;28;20037;-57
2024/02/23 12:57:34;;;;;;;2.90;0.93;;;;;;;;;;5058258;28;20416;-57
2024/02/23 13:00:05;;;;;;;1.77;0.90;;;;;;;;;;5055302;28;20175;-57
2024/02/23 13:02:31;;;;;;;1.08;0.70;;;;;;;;;;5052390;28;20048;-55
2024/02/23 13:04:58;;;;;;;2.28;1.00;;;;;;;;;;5053327;28;20073;-57
2024/02/23 13:07:25;;;;;;;5.40;1.10;;;;;;;;;;5059036;28;20076;-57
2024/02/23 13:09:51;;;;;;;3.38;1.33;;;;;;;;;;5053072;28;20165;-54
2024/02/23 13:12:18;;;;;;;3.28;1.25;;;;;;;;;;5055228;28;20099;-58
2024/02/23 13:14:45;;;;;;;3.15;1.02;;;;;;;;;;5056752;28;20524;-57
2024/02/23 13:17:13;;;;;;;2.67;1.10;;;;;;;;;;5052682;28;20092;-56
2024/02/23 13:19:40;;;;;;;2.17;0.77;;;;;;;;;;5052338;28;20045;-58
2024/02/23 13:22:07;;;;;;;1.83;0.90;;;;;;;;;;5055908;28;20052;-55
2024/02/23 13:24:33;;;;;;;1.98;0.80;;;;;;;;;;5057239;28;20051;-56
2024/02/23 13:27:00;;;;;;;2.80;0.80;;;;;;;;;;5052368;28;20041;-58
2024/02/23 13:29:27;;;;;;;3.17;0.90;;;;;;;;;;5052714;28;20057;-55
2024/02/23 13:31:53;;;;;;;3.70;1.05;;;;;;;;;;5060747;28;20080;-56
2024/02/23 13:34:22;;;;;;;1.58;0.90;;;;;;;;;;5053474;28;20451;-56
2024/02/23 13:36:49;;;;;;;3.10;1.10;;;;;;;;;;5050306;28;20493;-56
2024/02/23 13:39:16;;;;;;;1.80;0.90;;;;;;;;;;5058600;28;20048;-57
2024/02/23 13:41:43;;;;;;;3.95;1.60;;;;;;;;;;5049607;28;20496;-57
2024/02/23 13:44:09;;;;;;;1.98;0.85;;;;;;;;;;5051974;28;20045;-57
2024/02/23 13:46:39;;;;;;;2.65;0.90;;;;;;;;;;5059066;28;20071;-56
2024/02/23 13:49:08;;;;;;;2.08;0.82;;;;;;;;;;5051423;28;20500;-53
2024/02/23 13:51:36;;;;;;;2.00;0.70;;;;;;;;;;5053937;28;20080;-57
2024/02/23 13:54:04;;;;;;;1.33;0.65;;;;;;;;;;5055870;28;20130;-57
2024/02/23 13:56:30;;;;;;;1.20;0.60;;;;;;;;;;5051174;28;20136;-58
2024/02/23 13:58:57;;;;;;;3.03;1.10;;;;;;;;;;5061600;28;20519;-58
2024/02/23 14:01:24;;;;;;;0.63;0.50;;;;;;;;;;5052897;28;20057;-53
2024/02/23 14:03:51;;;;;;;2.47;1.05;;;;;;;;;;5053532;28;20053;-56
2024/02/23 14:06:18;;;;;;;1.13;0.50;;;;;;;;;;5058795;28;20049;-56
2024/02/23 14:08:47;;;;;;;1.63;0.60;;;;;;;;;;5052950;28;20053;-54
2024/02/23 14:11:14;;;;;;;1.42;0.70;;;;;;;;;;5051826;28;20044;-55
2024/02/23 14:13:41;;;;;;;1.63;0.50;;;;;;;;;;5051589;28;20481;-57
2024/02/23 14:16:08;;;;;;;1.23;0.60;;;;;;;;;;5055427;28;20052;-56
2024/02/23 14:18:37;;;;;;;2.80;0.82;;;;;;;;;;5056976;28;20052;-65
2024/02/23 14:21:05;;;;;;;1.42;0.60;;;;;;;;;;5058793;28;20048;-56
2024/02/23 14:23:33;;;;;;;1.48;0.65;;;;;;;;;;5051631;28;20045;-57
2024/02/23 14:26:02;;;;;;;1.25;0.57;;;;;;;;;;5048130;28;20576;-55
2024/02/23 14:28:28;;;;;;;2.28;0.88;;;;;;;;;;5052841;28;20123;-56
2024/02/23 14:30:55;;;;;;;1.95;0.90;;;;;;;;;;5051489;28;20150;-56
2024/02/23 14:33:22;;;;;;;1.60;0.70;;;;;;;;;;5051475;28;20048;-55
2024/02/23 14:35:49;;;;;;;1.45;0.50;;;;;;;;;;5051784;28;20049;-57
2024/02/23 14:38:16;;;;;;;1.63;0.77;;;;;;;;;;5054392;28;20102;-58
2024/02/23 14:40:43;;;;;;;1.25;0.70;;;;;;;;;;5052556;28;20041;-57
2024/02/23 14:43:11;;;;;;;2.05;0.70;;;;;;;;;;5050869;28;20076;-55